createdAt,value
2019-02-18T17:04:20.479Z,60.33
2019-02-18T17:06:51.042Z,60.67
2019-02-18T17:09:22.217Z,56.10
2019-02-18T17:11:52.895Z,59.55
2019-02-18T17:14:23.567Z,49.00
2019-02-18T17:16:54.570Z,50.08
2019-02-18T17:19:25.123Z,57.67
2019-02-18T17:21:55.737Z,53.95
2019-02-18T17:24:26.175Z,61.50
2019-02-18T17:26:56.714Z,60.00
2019-02-18T17:29:28.207Z,55.33
2019-02-18T17:31:59.858Z,60.48
2019-02-18T17:34:30.678Z,58.80
2019-02-18T17:37:01.519Z,62.62
2019-02-18T17:39:32.361Z,63.75
2019-02-18T17:42:02.434Z,56.05
2019-02-18T17:44:33.125Z,57.00
2019-02-18T17:47:03.880Z,52.98
2019-02-18T17:49:34.859Z,55.33
2019-02-18T17:52:05.576Z,58.52
2019-02-18T17:54:36.296Z,65.55
2019-02-18T17:57:06.660Z,66.50
2019-02-18T17:59:37.412Z,54.40
2019-02-18T18:02:08.356Z,59.42
2019-02-18T18:04:38.911Z,61.35
2019-02-18T18:07:09.831Z,61.40
2019-02-18T18:09:40.957Z,62.27
2019-02-18T18:12:11.886Z,62.95
2019-02-18T18:14:42.900Z,55.33
2019-02-18T18:17:14.078Z,73.45
2019-02-18T18:19:45.062Z,73.15
2019-02-18T18:22:15.966Z,65.17
2019-02-18T18:24:46.966Z,69.00
2019-02-18T18:27:17.823Z,69.77
2019-02-18T18:29:49.218Z,61.00
2019-02-18T18:32:20.118Z,73.67
2019-02-18T18:34:50.543Z,73.28
2019-02-18T18:37:21.424Z,80.85
2019-02-18T18:39:52.554Z,69.27
2019-02-18T18:42:25.016Z,68.52
2019-02-18T18:44:55.922Z,67.67
2019-02-18T18:47:26.739Z,75.22
2019-02-18T18:49:57.729Z,76.87
2019-02-18T18:52:30.428Z,72.92
2019-02-18T18:55:01.919Z,70.87
2019-02-18T18:57:32.713Z,68.85
2019-02-18T19:00:04.954Z,74.80
2019-02-18T19:02:37.375Z,73.37
2019-02-18T19:05:09.034Z,73.92
2019-02-18T19:07:40.305Z,69.05
2019-02-18T19:10:11.270Z,73.40
2019-02-18T19:12:42.143Z,79.90
2019-02-18T19:15:14.590Z,70.32
2019-02-18T19:17:45.526Z,78.62
2019-02-18T19:20:16.682Z,80.38
2019-02-18T19:22:47.570Z,76.60
2019-02-18T19:25:18.444Z,73.12
2019-02-18T19:27:49.353Z,84.80
2019-02-18T19:30:31.402Z,72.37
2019-02-18T19:33:03.285Z,77.85
2019-02-18T19:35:33.578Z,76.65
2019-02-18T19:38:04.664Z,87.22
2019-02-18T19:40:35.204Z,87.00
2019-02-18T19:43:06.445Z,88.15
2019-02-18T19:45:36.803Z,73.65
2019-02-18T19:48:07.688Z,76.60
2019-02-18T19:50:38.617Z,85.83
2019-02-18T19:53:10.810Z,86.20
2019-02-18T19:55:41.863Z,87.75
2019-02-18T19:58:12.645Z,80.55
2019-02-18T20:00:43.005Z,73.90
2019-02-18T20:03:14.473Z,92.07
2019-02-18T20:05:45.479Z,118.82
2019-02-18T20:08:18.603Z,109.70
2019-02-18T20:10:48.988Z,89.13
2019-02-18T20:13:20.841Z,83.07
2019-02-18T20:15:51.701Z,91.67
2019-02-18T20:18:22.224Z,85.10
2019-02-18T20:20:52.561Z,87.57
2019-02-18T20:23:24.488Z,74.60
2019-02-18T20:25:55.034Z,136.55
2019-02-18T20:28:25.303Z,108.00
2019-02-18T20:30:55.715Z,77.97
2019-02-18T20:33:26.092Z,73.22
2019-02-18T20:35:57.104Z,66.77
2019-02-18T20:38:27.981Z,74.30
2019-02-18T20:40:59.243Z,62.05
2019-02-18T20:43:30.140Z,63.17
2019-02-18T20:46:01.978Z,60.78
2019-02-18T20:48:32.915Z,62.00
2019-02-18T20:51:03.851Z,53.83
2019-02-18T20:53:35.118Z,54.93
2019-02-18T20:56:06.053Z,48.48
2019-02-18T20:58:38.213Z,46.42
2019-02-18T21:01:11.002Z,40.77
2019-02-18T21:03:41.806Z,38.50
2019-02-18T21:06:12.859Z,38.25
2019-02-18T21:08:44.107Z,33.23
2019-02-18T21:11:14.988Z,32.80
2019-02-18T21:13:45.345Z,40.03
2019-02-18T21:16:16.397Z,34.63
2019-02-18T21:18:46.855Z,31.20
2019-02-18T21:21:17.645Z,36.40
2019-02-18T21:23:48.405Z,33.85
2019-02-18T21:26:18.619Z,33.67
2019-02-18T21:28:49.156Z,28.23
2019-02-18T21:31:19.281Z,28.33
2019-02-18T21:33:50.143Z,27.70
2019-02-18T21:36:20.609Z,27.32
2019-02-18T21:38:51.374Z,25.57
2019-02-18T21:41:21.982Z,23.55
2019-02-18T21:43:51.752Z,27.15
2019-02-18T21:46:22.296Z,21.70
2019-02-18T21:48:52.153Z,24.03
2019-02-18T21:51:22.114Z,25.45
2019-02-18T21:53:51.869Z,36.68
2019-02-18T21:56:21.765Z,34.90
2019-02-18T21:58:51.596Z,36.95
2019-02-18T22:01:21.476Z,32.33
2019-02-18T22:03:51.452Z,27.58
2019-02-18T22:06:21.400Z,28.40
2019-02-18T22:08:51.357Z,23.43
2019-02-18T22:11:21.251Z,30.63
2019-02-18T22:13:51.118Z,25.40
2019-02-18T22:16:21.034Z,24.93
2019-02-18T22:18:51.488Z,26.30
2019-02-18T22:21:21.535Z,22.97
2019-02-18T22:23:52.092Z,23.85
2019-02-18T22:26:21.940Z,24.20
2019-02-18T22:28:51.870Z,28.27
2019-02-18T22:31:21.710Z,33.83
2019-02-18T22:33:51.492Z,28.63
2019-02-18T22:36:21.934Z,27.90
2019-02-18T22:38:51.805Z,34.23
2019-02-18T22:41:21.826Z,34.00
2019-02-18T22:43:51.633Z,39.00
2019-02-18T22:46:21.785Z,33.77
2019-02-18T22:48:51.694Z,40.77
2019-02-18T22:51:21.658Z,36.43
2019-02-18T22:53:51.521Z,43.43
2019-02-18T22:56:22.377Z,42.77
2019-02-18T22:58:52.134Z,39.67
2019-02-18T23:01:22.198Z,38.10
2019-02-18T23:03:52.153Z,40.50
2019-02-18T23:06:22.527Z,44.80
2019-02-18T23:08:53.445Z,44.20
2019-02-18T23:11:23.470Z,38.77
2019-02-18T23:13:53.416Z,44.70
2019-02-18T23:16:23.398Z,64.13
2019-02-18T23:18:53.535Z,43.13
2019-02-18T23:21:23.773Z,38.93
2019-02-18T23:23:53.616Z,39.63
2019-02-18T23:26:23.784Z,48.23
2019-02-18T23:28:53.731Z,43.60
2019-02-18T23:31:23.740Z,42.03
2019-02-18T23:33:53.584Z,34.00
2019-02-18T23:36:23.878Z,38.27
2019-02-18T23:38:53.720Z,32.43
2019-02-18T23:41:23.646Z,32.97
2019-02-18T23:43:53.566Z,41.00
2019-02-18T23:46:23.437Z,36.33
2019-02-18T23:48:53.311Z,39.10
2019-02-18T23:51:23.268Z,32.73
2019-02-18T23:53:53.125Z,32.67
2019-02-18T23:56:23.005Z,37.90
2019-02-18T23:58:53.978Z,36.97
